Time;durP1;ratioP1;P1;durP2;ratioP2;P2;SDS_P1;SDS_P2;PMS_P1;PMS_P2;Temp;Humidity;BMP_temperature;BMP_pressure;BME280_temperature;BME280_humidity;BME280_pressure;Samples;Min_cycle;Max_cycle;Signal;HPM_P1;HPM_P2
2021/11/17 02:27:47;;;;;;;0.30;0.20;;;5.40;99.90;;;;;;5034046;28;20410;-85
2021/11/17 02:30:36;;;;;;;0.30;0.30;;;5.40;99.90;;;;;;5034502;28;20795;-85
2021/11/17 02:33:17;;;;;;;0.30;0.30;;;5.40;99.90;;;;;;5033848;28;20460;-85
2021/11/17 02:35:58;;;;;;;0.30;0.20;;;5.40;99.90;;;;;;5033862;28;20427;-85
2021/11/17 02:38:51;;;;;;;0.30;0.20;;;5.40;99.90;;;;;;5033874;28;20435;-85
2021/11/17 02:41:51;;;;;;;0.30;0.20;;;5.40;99.90;;;;;;5033841;28;20439;-85
2021/11/17 02:44:32;;;;;;;1.30;1.30;;;5.40;99.90;;;;;;5040571;28;20552;-84
2021/11/17 02:47:30;;;;;;;0.30;0.20;;;5.40;99.90;;;;;;5033861;28;20820;-86
2021/11/17 02:50:21;;;;;;;0.30;0.20;;;5.40;99.90;;;;;;5033651;28;20457;-85
2021/11/17 02:53:00;;;;;;;2.30;0.93;;;5.40;99.90;;;;;;5033902;28;20451;-85
2021/11/17 02:55:51;;;;;;;0.30;0.30;;;5.40;99.90;;;;;;5033669;28;20481;-85
2021/11/17 02:58:37;;;;;;;0.30;0.30;;;5.40;99.90;;;;;;5033309;28;20853;-86
2021/11/17 03:01:33;;;;;;;0.40;0.40;;;5.40;99.90;;;;;;5033948;28;20447;-86
2021/11/17 03:04:14;;;;;;;0.40;0.30;;;5.40;99.90;;;;;;5033309;28;20490;-85
2021/11/17 03:07:09;;;;;;;0.30;0.20;;;5.40;99.90;;;;;;5033528;28;20439;-85
2021/11/17 03:09:55;;;;;;;0.30;0.30;;;5.40;99.90;;;;;;5030188;28;20469;-85
2021/11/17 03:13:01;;;;;;;0.30;0.20;;;5.40;99.90;;;;;;5033381;28;20407;-85
2021/11/17 03:15:47;;;;;;;0.30;0.20;;;5.40;99.90;;;;;;5033339;28;20462;-85
2021/11/17 03:18:30;;;;;;;0.30;0.30;;;5.40;99.90;;;;;;5033307;28;20788;-85
2021/11/17 03:21:10;;;;;;;0.30;0.30;;;5.40;99.90;;;;;;5033350;28;20430;-85
2021/11/17 03:23:53;;;;;;;0.30;0.20;;;5.30;99.90;;;;;;5035002;28;20520;-85
2021/11/17 03:26:33;;;;;;;0.30;0.30;;;5.30;99.90;;;;;;5037028;28;20434;-85
2021/11/17 03:29:25;;;;;;;0.30;0.20;;;5.30;99.90;;;;;;5037321;28;20773;-85
2021/11/17 03:32:11;;;;;;;0.30;0.20;;;5.30;99.90;;;;;;5037026;28;20411;-84
2021/11/17 03:34:55;;;;;;;0.30;0.20;;;5.30;99.90;;;;;;5036749;28;20985;-85
2021/11/17 03:37:58;;;;;;;0.30;0.20;;;5.30;99.90;;;;;;5037076;28;20438;-85
2021/11/17 03:40:54;;;;;;;0.30;0.20;;;5.20;99.90;;;;;;5037016;28;20450;-85
2021/11/17 03:43:58;;;;;;;0.30;0.30;;;5.20;99.90;;;;;;5036593;28;20426;-85
2021/11/17 03:46:45;;;;;;;0.30;0.20;;;5.20;99.90;;;;;;5036585;28;20906;-85
2021/11/17 03:49:31;;;;;;;0.30;0.30;;;5.20;99.90;;;;;;5033405;28;20512;-83
2021/11/17 03:52:13;;;;;;;0.30;0.30;;;5.10;99.90;;;;;;5036496;28;20934;-85
2021/11/17 03:55:07;;;;;;;0.30;0.30;;;5.10;99.90;;;;;;5036251;28;20474;-85
2021/11/17 03:57:45;;;;;;;0.40;0.40;;;5.10;99.90;;;;;;5030041;28;20500;-84
2021/11/17 04:00:54;;;;;;;0.30;0.30;;;5.10;99.90;;;;;;5036650;28;20430;-84
2021/11/17 04:03:46;;;;;;;0.30;0.20;;;5.10;99.90;;;;;;5026212;28;20465;-84
2021/11/17 04:06:28;;;;;;;0.30;0.20;;;5.10;99.90;;;;;;5023055;28;20485;-84
2021/11/17 04:09:09;;;;;;;0.30;0.20;;;5.00;99.90;;;;;;5036177;28;20434;-84
2021/11/17 04:11:51;;;;;;;0.43;0.30;;;5.00;99.90;;;;;;5036097;28;20435;-84
2021/11/17 04:14:30;;;;;;;0.30;0.30;;;5.00;99.90;;;;;;5036309;28;20462;-84
2021/11/17 04:17:12;;;;;;;0.30;0.20;;;5.00;99.90;;;;;;5036408;28;20439;-84
2021/11/17 04:19:50;;;;;;;0.30;0.30;;;5.00;99.90;;;;;;5036034;28;20956;-83
2021/11/17 04:22:33;;;;;;;0.30;0.20;;;5.00;99.90;;;;;;5036306;28;20419;-84
2021/11/17 04:25:19;;;;;;;0.30;0.20;;;5.10;99.90;;;;;;5035780;28;20993;-84
2021/11/17 04:28:00;;;;;;;0.30;0.23;;;5.10;99.90;;;;;;5036174;28;20481;-84
2021/11/17 04:30:51;;;;;;;0.50;0.50;;;5.10;99.90;;;;;;5036147;28;20875;-84
2021/11/17 04:33:37;;;;;;;0.30;0.30;;;5.10;99.90;;;;;;5035762;28;20420;-84
2021/11/17 04:36:31;;;;;;;0.30;0.30;;;5.10;99.90;;;;;;5036021;28;20431;-84
2021/11/17 04:39:24;;;;;;;0.30;0.20;;;5.00;99.90;;;;;;5036020;28;20439;-84
2021/11/17 04:42:15;;;;;;;0.30;0.30;;;5.00;99.90;;;;;;5035830;28;20451;-84
2021/11/17 04:45:08;;;;;;;0.30;0.20;;;5.00;99.90;;;;;;5031576;28;20494;-84
2021/11/17 04:47:50;;;;;;;0.30;0.20;;;5.00;99.90;;;;;;5031785;28;20462;-84
2021/11/17 04:50:34;;;;;;;0.30;0.30;;;5.00;99.90;;;;;;5035710;28;20439;-84
2021/11/17 04:53:15;;;;;;;0.30;0.20;;;5.00;99.90;;;;;;5035203;28;20949;-84
2021/11/17 04:55:58;;;;;;;0.30;0.20;;;5.00;99.90;;;;;;5035335;28;20435;-84
2021/11/17 04:58:48;;;;;;;0.30;0.30;;;5.00;99.90;;;;;;5035274;28;20427;-84
2021/11/17 05:01:31;;;;;;;0.30;0.20;;;5.00;99.90;;;;;;5035513;28;20442;-84
2021/11/17 05:04:12;;;;;;;0.30;0.30;;;5.00;99.90;;;;;;5035442;28;20463;-84
2021/11/17 05:06:56;;;;;;;0.30;0.30;;;5.00;99.90;;;;;;5035441;28;20456;-84
2021/11/17 05:09:33;;;;;;;0.30;0.30;;;5.00;99.90;;;;;;5035128;28;20473;-83
2021/11/17 05:12:15;;;;;;;0.30;0.30;;;5.00;99.90;;;;;;5035346;28;20481;-84
2021/11/17 05:14:52;;;;;;;0.30;0.30;;;5.00;99.90;;;;;;5034900;28;20549;-83
2021/11/17 05:17:30;;;;;;;0.30;0.20;;;5.00;99.90;;;;;;5034979;28;20407;-84
2021/11/17 05:20:09;;;;;;;1.17;0.40;;;5.00;99.90;;;;;;5035196;28;20438;-84
2021/11/17 05:22:51;;;;;;;0.30;0.20;;;5.10;99.90;;;;;;5034838;28;20422;-84
2021/11/17 05:25:34;;;;;;;0.30;0.30;;;5.10;99.90;;;;;;5034989;28;20486;-84
2021/11/17 05:28:22;;;;;;;0.50;0.50;;;5.10;99.90;;;;;;5035142;28;20415;-84
2021/11/17 05:31:03;;;;;;;0.30;0.30;;;5.10;99.90;;;;;;5031309;28;20450;-85
2021/11/17 05:33:49;;;;;;;0.30;0.20;;;5.10;99.90;;;;;;5034654;28;20455;-85
2021/11/17 05:36:27;;;;;;;0.30;0.30;;;5.10;99.90;;;;;;5034893;28;20435;-84
2021/11/17 05:39:11;;;;;;;0.30;0.30;;;5.10;99.90;;;;;;5034794;28;20435;-84
2021/11/17 05:41:55;;;;;;;0.30;0.30;;;5.10;99.90;;;;;;5034565;28;20451;-84
2021/11/17 05:44:34;;;;;;;0.30;0.30;;;5.10;99.90;;;;;;5034347;28;20966;-85
2021/11/17 05:47:18;;;;;;;0.70;0.40;;;5.00;99.90;;;;;;5034079;28;20763;-84
2021/11/17 05:49:57;;;;;;;0.30;0.30;;;5.00;99.90;;;;;;5034605;28;20432;-84
2021/11/17 05:52:45;;;;;;;0.30;0.20;;;5.00;99.90;;;;;;5034605;28;20438;-84
2021/11/17 05:55:31;;;;;;;0.60;0.60;;;5.00;99.90;;;;;;5034166;28;20463;-84
2021/11/17 05:58:11;;;;;;;0.30;0.30;;;5.00;99.90;;;;;;5034445;28;20443;-84
2021/11/17 06:01:05;;;;;;;0.30;0.30;;;5.10;99.90;;;;;;5034187;28;20412;-85
2021/11/17 06:03:43;;;;;;;0.63;0.63;;;5.00;99.90;;;;;;5033867;28;20466;-84
2021/11/17 06:06:10;;;;;;;0.30;0.30;;;5.10;99.90;;;;;;5033918;28;20474;-84
2021/11/17 06:08:36;;;;;;;0.30;0.20;;;5.10;99.90;;;;;;5034219;28;20443;-84
2021/11/17 06:11:05;;;;;;;0.30;0.20;;;5.10;99.90;;;;;;5034267;28;20451;-89
2021/11/17 06:13:33;;;;;;;0.30;0.20;;;5.10;99.90;;;;;;5035032;28;20471;-90
2021/11/17 06:16:00;;;;;;;0.40;0.37;;;5.10;99.90;;;;;;5035044;28;20454;-90
2021/11/17 06:18:32;;;;;;;0.30;0.30;;;5.00;99.90;;;;;;5035344;28;20462;-90
2021/11/17 06:20:59;;;;;;;0.30;0.20;;;5.00;99.90;;;;;;5035133;28;20431;-90
2021/11/17 06:23:29;;;;;;;1.17;0.40;;;5.00;99.90;;;;;;5034922;28;20467;-90
2021/11/17 06:25:57;;;;;;;0.40;0.30;;;5.00;99.90;;;;;;5034625;28;20466;-90
2021/11/17 06:28:28;;;;;;;0.30;0.30;;;5.00;99.90;;;;;;5034828;28;20450;-90
2021/11/17 06:30:58;;;;;;;0.80;0.80;;;5.00;99.90;;;;;;5034691;28;20412;-85
2021/11/17 06:33:25;;;;;;;0.60;0.60;;;5.00;99.90;;;;;;5033804;28;20475;-84
2021/11/17 06:35:52;;;;;;;0.30;0.20;;;5.00;99.90;;;;;;5033722;28;20454;-84
2021/11/17 06:38:19;;;;;;;0.30;0.30;;;5.00;99.90;;;;;;5033510;28;20934;-85
2021/11/17 06:40:48;;;;;;;0.30;0.30;;;5.00;99.90;;;;;;5033440;28;20934;-85
2021/11/17 06:43:15;;;;;;;0.30;0.20;;;5.00;99.90;;;;;;5033332;28;20457;-85
2021/11/17 06:45:45;;;;;;;0.30;0.30;;;5.00;99.90;;;;;;5033283;28;20558;-85
2021/11/17 06:48:13;;;;;;;0.30;0.30;;;5.00;99.90;;;;;;5033782;28;20446;-84
2021/11/17 06:50:42;;;;;;;0.30;0.30;;;5.00;99.90;;;;;;5033798;28;20442;-85
2021/11/17 06:53:09;;;;;;;0.30;0.20;;;5.00;99.90;;;;;;5033380;28;20485;-85
2021/11/17 06:55:36;;;;;;;2.73;0.93;;;5.00;99.90;;;;;;5033608;28;20442;-85
2021/11/17 06:58:03;;;;;;;0.30;0.20;;;5.00;99.90;;;;;;5032993;28;20446;-85
2021/11/17 07:00:32;;;;;;;0.30;0.30;;;5.00;99.90;;;;;;5033398;28;20439;-85
2021/11/17 07:03:00;;;;;;;0.30;0.30;;;5.00;99.90;;;;;;5033635;28;20453;-85
2021/11/17 07:05:27;;;;;;;0.30;0.30;;;5.00;99.90;;;;;;5033551;28;20477;-85
2021/11/17 07:07:56;;;;;;;0.63;0.63;;;5.00;99.90;;;;;;5033638;28;20501;-85
2021/11/17 07:10:28;;;;;;;0.30;0.20;;;5.10;99.90;;;;;;5034139;28;20486;-85
2021/11/17 07:12:55;;;;;;;0.40;0.40;;;5.00;99.90;;;;;;5033199;28;20435;-85
2021/11/17 07:15:23;;;;;;;0.30;0.20;;;5.10;99.90;;;;;;5033652;28;20458;-90
2021/11/17 07:17:49;;;;;;;0.30;0.30;;;5.10;99.90;;;;;;5034595;28;20451;-91
2021/11/17 07:20:18;;;;;;;0.40;0.40;;;5.20;99.90;;;;;;5034534;28;20442;-91
2021/11/17 07:22:45;;;;;;;0.33;0.33;;;5.20;99.90;;;;;;5034349;28;20458;-91
2021/11/17 07:25:14;;;;;;;0.40;0.30;;;5.20;99.90;;;;;;5033971;28;20473;-91
2021/11/17 07:27:41;;;;;;;0.30;0.20;;;5.20;99.90;;;;;;5034315;28;20522;-91
2021/11/17 07:30:10;;;;;;;0.33;0.33;;;5.20;99.90;;;;;;5034264;28;20446;-91
2021/11/17 07:32:37;;;;;;;0.30;0.30;;;5.20;99.90;;;;;;5034176;28;20453;-91
2021/11/17 07:35:05;;;;;;;0.50;0.43;;;5.20;99.90;;;;;;5034488;28;20532;-91
2021/11/17 07:37:33;;;;;;;0.30;0.20;;;5.20;99.90;;;;;;5034210;28;20454;-91
2021/11/17 07:40:00;;;;;;;0.30;0.30;;;5.20;99.90;;;;;;5033422;28;20817;-85
2021/11/17 07:42:26;;;;;;;0.40;0.30;;;5.30;99.90;;;;;;5033023;28;20454;-85
2021/11/17 07:44:53;;;;;;;0.40;0.40;;;5.20;99.90;;;;;;5032752;28;20459;-85
2021/11/17 07:47:20;;;;;;;0.60;0.60;;;5.20;99.90;;;;;;5032600;28;20474;-85
2021/11/17 07:49:47;;;;;;;0.30;0.20;;;5.20;99.90;;;;;;5032814;28;20438;-86
2021/11/17 07:52:14;;;;;;;0.40;0.40;;;5.30;99.90;;;;;;5033147;28;20438;-86
2021/11/17 07:54:42;;;;;;;0.30;0.20;;;5.30;99.90;;;;;;5032403;28;20865;-86
2021/11/17 07:57:09;;;;;;;0.40;0.40;;;5.30;99.90;;;;;;5033193;28;20473;-87
2021/11/17 07:59:37;;;;;;;0.37;0.37;;;5.40;99.90;;;;;;5032927;28;20431;-87
2021/11/17 08:02:07;;;;;;;0.30;0.20;;;5.40;99.90;;;;;;5033015;28;20441;-87
2021/11/17 08:04:35;;;;;;;0.30;0.30;;;5.40;99.90;;;;;;5033314;28;20474;-87
2021/11/17 08:07:04;;;;;;;0.30;0.20;;;5.50;99.90;;;;;;5032762;28;20536;-86
2021/11/17 08:09:31;;;;;;;0.30;0.20;;;5.50;99.90;;;;;;5034405;28;20451;-87
2021/11/17 08:11:59;;;;;;;0.30;0.30;;;5.60;99.90;;;;;;5036873;28;20442;-85
2021/11/17 08:14:26;;;;;;;0.60;0.30;;;5.60;99.90;;;;;;5036483;28;20458;-86
2021/11/17 08:16:53;;;;;;;6.03;0.40;;;5.60;99.90;;;;;;5036470;28;20434;-86
2021/11/17 08:19:19;;;;;;;0.93;0.93;;;5.60;99.90;;;;;;5036460;28;20446;-86
2021/11/17 08:21:46;;;;;;;0.30;0.20;;;5.60;99.90;;;;;;5036356;28;20436;-85
2021/11/17 08:24:13;;;;;;;0.30;0.20;;;5.60;99.90;;;;;;5036183;28;20471;-85
2021/11/17 08:26:39;;;;;;;0.40;0.40;;;5.70;99.90;;;;;;5036083;28;20471;-84
2021/11/17 08:29:09;;;;;;;0.30;0.20;;;5.60;99.90;;;;;;5035899;28;20915;-87
2021/11/17 08:31:36;;;;;;;0.73;0.73;;;5.70;99.90;;;;;;5036492;28;20446;-87
2021/11/17 08:34:03;;;;;;;0.40;0.40;;;5.60;99.90;;;;;;5036288;28;20463;-87
2021/11/17 08:36:30;;;;;;;0.30;0.20;;;5.60;99.90;;;;;;5036627;28;20443;-89
2021/11/17 08:38:56;;;;;;;0.30;0.20;;;5.60;99.90;;;;;;5037026;28;20488;-89
2021/11/17 08:41:25;;;;;;;0.30;0.20;;;5.60;99.90;;;;;;5036763;28;20451;-89
2021/11/17 08:43:53;;;;;;;0.40;0.40;;;5.60;99.90;;;;;;5037127;28;20474;-89
2021/11/17 08:46:22;;;;;;;0.30;0.20;;;5.60;99.90;;;;;;5036131;28;21001;-89
2021/11/17 08:48:48;;;;;;;0.30;0.20;;;5.50;99.90;;;;;;5036590;28;20447;-89
2021/11/17 08:51:18;;;;;;;0.30;0.30;;;5.60;99.90;;;;;;5036388;28;20926;-89
2021/11/17 08:53:49;;;;;;;0.30;0.30;;;5.60;99.90;;;;;;5036137;28;20505;-89
2021/11/17 08:56:16;;;;;;;0.30;0.30;;;5.60;99.90;;;;;;5036965;28;20805;-90
2021/11/17 08:58:44;;;;;;;1.43;0.57;;;5.60;99.90;;;;;;5036562;28;20454;-89
2021/11/17 09:01:11;;;;;;;0.30;0.30;;;5.60;99.90;;;;;;5036462;28;20458;-89
2021/11/17 09:03:40;;;;;;;0.30;0.20;;;5.60;99.90;;;;;;5039134;28;20517;-89
2021/11/17 09:06:09;;;;;;;0.40;0.40;;;5.60;99.90;;;;;;5038785;28;20489;-89
2021/11/17 09:08:37;;;;;;;0.40;0.40;;;5.60;99.90;;;;;;5038349;28;20434;-89
2021/11/17 09:11:07;;;;;;;0.40;0.40;;;5.60;99.90;;;;;;5036147;28;20457;-89
2021/11/17 09:13:35;;;;;;;0.30;0.30;;;5.60;99.90;;;;;;5036274;28;20825;-89
2021/11/17 09:16:03;;;;;;;0.30;0.30;;;5.60;99.90;;;;;;5036036;28;20450;-89
2021/11/17 09:18:32;;;;;;;0.30;0.20;;;5.60;99.90;;;;;;5036057;28;20469;-89
2021/11/17 09:21:02;;;;;;;0.30;0.20;;;5.70;99.90;;;;;;5035071;28;20473;-89
2021/11/17 09:23:30;;;;;;;0.30;0.20;;;5.70;99.90;;;;;;5035157;28;20462;-87
2021/11/17 09:25:58;;;;;;;0.37;0.33;;;5.70;99.90;;;;;;5035482;28;20482;-87
2021/11/17 09:28:26;;;;;;;0.30;0.20;;;5.70;99.90;;;;;;5035223;28;20442;-86
2021/11/17 09:30:54;;;;;;;0.30;0.30;;;5.70;99.90;;;;;;5035706;28;20450;-89
2021/11/17 09:33:23;;;;;;;0.30;0.20;;;5.70;99.90;;;;;;5035046;28;20446;-85
2021/11/17 09:35:51;;;;;;;0.30;0.30;;;5.70;99.90;;;;;;5034918;28;20470;-85
2021/11/17 09:38:19;;;;;;;0.40;0.40;;;5.70;99.90;;;;;;5034683;28;20894;-85
2021/11/17 09:40:49;;;;;;;0.30;0.30;;;5.70;99.90;;;;;;5034921;28;20451;-86
2021/11/17 09:43:19;;;;;;;0.30;0.20;;;5.70;99.90;;;;;;5034798;28;20439;-85
2021/11/17 09:45:47;;;;;;;0.30;0.20;;;5.70;99.90;;;;;;5034796;28;20407;-85
2021/11/17 09:48:19;;;;;;;0.30;0.30;;;5.70;99.90;;;;;;5034566;28;20778;-86
2021/11/17 09:50:48;;;;;;;0.30;0.20;;;5.60;99.90;;;;;;5034677;28;20434;-85
2021/11/17 09:53:26;;;;;;;0.63;0.63;;;5.70;99.90;;;;;;5034140;28;20482;-86
2021/11/17 09:55:56;;;;;;;0.30;0.30;;;5.70;99.90;;;;;;5034308;28;20942;-85
2021/11/17 09:58:27;;;;;;;0.30;0.30;;;5.70;99.90;;;;;;5034597;28;20435;-86
2021/11/17 10:00:58;;;;;;;0.30;0.20;;;5.80;99.90;;;;;;5034132;28;20911;-85
2021/11/17 10:03:31;;;;;;;0.30;0.30;;;5.70;99.90;;;;;;5034906;28;20478;-86
2021/11/17 10:06:37;;;;;;;0.30;0.30;;;5.70;99.90;;;;;;5034307;28;20450;-86
2021/11/17 10:12:03;;;;;;;0.30;0.30;;;5.70;99.90;;;;;;5034369;28;20402;-86
2021/11/17 10:14:37;;;;;;;0.30;0.20;;;5.70;99.90;;;;;;5034180;28;20474;-86
2021/11/17 10:17:45;;;;;;;0.30;0.20;;;5.80;99.90;;;;;;5034269;28;20431;-86
2021/11/17 10:20:19;;;;;;;0.30;0.20;;;5.80;99.90;;;;;;5027962;28;20911;-86
2021/11/17 10:22:49;;;;;;;1.27;0.80;;;5.90;99.90;;;;;;5033963;28;20805;-86
2021/11/17 10:25:22;;;;;;;0.30;0.20;;;5.90;99.90;;;;;;5034117;28;20458;-86
2021/11/17 10:27:53;;;;;;;0.30;0.20;;;6.00;99.90;;;;;;5034149;28;20467;-86
2021/11/17 10:30:33;;;;;;;0.30;0.20;;;6.10;99.90;;;;;;5033839;28;20407;-86
2021/11/17 10:33:11;;;;;;;0.30;0.20;;;6.10;99.90;;;;;;5033706;28;20450;-86
2021/11/17 10:35:44;;;;;;;0.30;0.30;;;6.20;99.90;;;;;;5033979;28;20442;-86
2021/11/17 10:38:18;;;;;;;0.30;0.30;;;6.30;99.90;;;;;;5033898;28;20423;-85
2021/11/17 10:40:53;;;;;;;0.30;0.20;;;6.30;99.90;;;;;;5033786;28;20435;-86
2021/11/17 10:43:22;;;;;;;0.30;0.20;;;6.30;99.90;;;;;;5033799;28;20472;-86
2021/11/17 10:45:51;;;;;;;1.17;0.50;;;6.40;99.90;;;;;;5033477;28;20915;-86
2021/11/17 10:48:21;;;;;;;0.30;0.30;;;6.40;99.90;;;;;;5033727;28;20545;-86
2021/11/17 10:50:47;;;;;;;0.30;0.30;;;6.50;99.90;;;;;;5033823;28;20435;-86
2021/11/17 10:53:26;;;;;;;1.50;0.37;;;6.50;99.90;;;;;;5033538;28;20474;-86
2021/11/17 10:55:55;;;;;;;0.30;0.20;;;6.60;99.90;;;;;;5033447;28;20426;-86
2021/11/17 10:58:25;;;;;;;0.30;0.30;;;6.70;99.90;;;;;;5033559;28;20434;-85
2021/11/17 11:00:58;;;;;;;0.30;0.20;;;6.70;99.90;;;;;;5034421;28;20442;-86
2021/11/17 11:03:27;;;;;;;0.30;0.30;;;6.70;99.90;;;;;;5033798;28;20470;-86
2021/11/17 11:06:01;;;;;;;0.30;0.20;;;6.70;99.90;;;;;;5034204;28;20446;-87
2021/11/17 11:08:32;;;;;;;0.30;0.20;;;6.70;99.90;;;;;;5033773;28;20541;-87
2021/11/17 11:11:02;;;;;;;0.30;0.20;;;6.60;99.90;;;;;;5033744;28;20419;-87
2021/11/17 11:13:33;;;;;;;0.30;0.20;;;6.60;99.90;;;;;;5033955;28;20474;-87
2021/11/17 11:16:14;;;;;;;0.30;0.30;;;6.50;99.90;;;;;;5033588;28;20931;-87
2021/11/17 11:18:49;;;;;;;0.30;0.20;;;6.40;99.90;;;;;;5033724;28;20443;-87
2021/11/17 11:21:19;;;;;;;0.30;0.30;;;6.50;99.90;;;;;;5033339;28;20402;-87
2021/11/17 11:24:25;;;;;;;0.30;0.20;;;6.50;99.90;;;;;;5033580;28;20470;-87
2021/11/17 11:27:26;;;;;;;0.30;0.20;;;6.60;99.90;;;;;;5033530;28;20871;-86
2021/11/17 11:30:26;;;;;;;0.30;0.20;;;6.70;99.90;;;;;;5033502;28;20442;-87
2021/11/17 11:32:55;;;;;;;0.30;0.20;;;6.80;99.90;;;;;;5033627;28;20485;-88
2021/11/17 11:35:24;;;;;;;0.30;0.20;;;6.90;99.90;;;;;;5033931;28;20476;-88
2021/11/17 11:38:04;;;;;;;0.30;0.20;;;6.80;99.90;;;;;;5033769;28;20445;-85
2021/11/17 11:41:07;;;;;;;0.30;0.20;;;6.80;99.90;;;;;;5033390;28;20450;-85
2021/11/17 11:43:36;;;;;;;0.50;0.50;;;6.70;99.90;;;;;;5033607;28;20928;-85
2021/11/17 11:46:28;;;;;;;0.30;0.20;;;6.70;99.90;;;;;;5037547;28;20883;-84
2021/11/17 11:49:01;;;;;;;0.30;0.30;;;6.50;99.90;;;;;;5033907;28;20462;-84
2021/11/17 11:52:02;;;;;;;0.30;0.20;;;6.50;99.90;;;;;;5037150;28;20438;-87
2021/11/17 11:54:32;;;;;;;0.30;0.20;;;6.50;99.90;;;;;;5036658;28;20478;-86
2021/11/17 11:57:31;;;;;;;0.30;0.20;;;6.50;99.90;;;;;;5037660;28;20443;-87
2021/11/17 12:00:04;;;;;;;0.30;0.20;;;6.40;99.90;;;;;;5037001;28;20418;-87
2021/11/17 12:02:36;;;;;;;0.30;0.27;;;6.40;99.90;;;;;;5037099;28;20439;-87
2021/11/17 12:05:07;;;;;;;0.30;0.20;;;6.40;99.90;;;;;;5037493;28;20474;-93
2021/11/17 12:07:54;;;;;;;0.30;0.30;;;6.40;99.90;;;;;;5037386;28;20462;-92
2021/11/17 12:10:26;;;;;;;0.30;0.20;;;6.40;99.90;;;;;;5037554;28;20450;-91
2021/11/17 12:12:53;;;;;;;0.30;0.20;;;6.40;99.90;;;;;;5037476;28;20918;-91
2021/11/17 12:15:26;;;;;;;0.30;0.20;;;6.40;99.90;;;;;;5037140;28;20450;-90
2021/11/17 12:18:07;;;;;;;0.30;0.30;;;6.30;99.90;;;;;;5037158;28;20442;-89
2021/11/17 12:20:36;;;;;;;0.30;0.20;;;6.30;99.90;;;;;;5037058;28;20438;-89
2021/11/17 12:23:18;;;;;;;0.30;0.30;;;6.30;99.90;;;;;;5037209;28;20438;-93
2021/11/17 12:25:58;;;;;;;0.30;0.30;;;6.40;99.90;;;;;;5037402;28;20490;-92
2021/11/17 12:28:27;;;;;;;0.30;0.20;;;6.40;99.90;;;;;;5037435;28;20477;-93
2021/11/17 12:30:58;;;;;;;0.30;0.20;;;6.40;99.90;;;;;;5037279;28;20446;-93
2021/11/17 12:33:29;;;;;;;0.30;0.20;;;6.40;99.90;;;;;;5037202;28;20443;-92
2021/11/17 12:36:12;;;;;;;0.30;0.20;;;6.40;99.90;;;;;;5036520;28;20420;-86
2021/11/17 12:38:40;;;;;;;0.40;0.37;;;6.40;99.90;;;;;;5036306;28;20431;-87
2021/11/17 12:41:10;;;;;;;0.60;0.50;;;6.40;99.90;;;;;;5036795;28;20829;-87
2021/11/17 12:43:39;;;;;;;0.30;0.30;;;6.30;99.90;;;;;;5036019;28;20467;-87
2021/11/17 12:46:12;;;;;;;0.30;0.20;;;6.30;99.90;;;;;;5036385;28;20447;-87
2021/11/17 12:48:45;;;;;;;0.30;0.30;;;6.30;99.90;;;;;;5036391;28;20836;-93
2021/11/17 12:51:17;;;;;;;0.30;0.20;;;6.40;99.90;;;;;;5037222;28;20438;-92
2021/11/17 12:53:49;;;;;;;0.30;0.20;;;6.40;99.90;;;;;;5036455;28;20474;-87
2021/11/17 12:56:21;;;;;;;0.30;0.30;;;6.40;99.90;;;;;;5036368;28;20407;-88
2021/11/17 12:58:51;;;;;;;0.30;0.20;;;6.40;99.90;;;;;;5036837;28;20434;-88
2021/11/17 13:01:34;;;;;;;0.30;0.30;;;6.50;99.90;;;;;;5036224;28;20426;-88
2021/11/17 13:04:07;;;;;;;0.30;0.20;;;6.50;99.90;;;;;;5036176;28;20538;-88
2021/11/17 13:06:46;;;;;;;0.30;0.30;;;6.50;99.90;;;;;;5036131;28;20862;-89
2021/11/17 13:09:16;;;;;;;0.30;0.30;;;6.50;99.90;;;;;;5035939;28;20426;-88
2021/11/17 13:12:11;;;;;;;0.30;0.20;;;6.40;99.90;;;;;;5035973;28;20435;-88
2021/11/17 13:14:50;;;;;;;1.00;0.40;;;6.40;99.90;;;;;;5035834;28;20524;-88
2021/11/17 13:17:22;;;;;;;0.30;0.30;;;6.40;99.90;;;;;;5035703;28;20419;-88
2021/11/17 13:19:51;;;;;;;0.30;0.20;;;6.50;99.90;;;;;;5036347;28;20525;-88
2021/11/17 13:22:27;;;;;;;0.30;0.20;;;6.40;99.90;;;;;;5036204;28;20451;-88
2021/11/17 13:25:14;;;;;;;0.50;0.50;;;6.40;99.90;;;;;;5035827;28;20467;-92
2021/11/17 13:27:44;;;;;;;0.30;0.30;;;6.40;99.90;;;;;;5036127;28;20502;-93
2021/11/17 13:30:23;;;;;;;0.30;0.30;;;6.40;99.90;;;;;;5036103;28;20438;-87
2021/11/17 13:32:53;;;;;;;2.30;0.50;;;6.50;99.90;;;;;;5035213;28;20435;-87
2021/11/17 13:35:31;;;;;;;0.30;0.30;;;6.50;99.90;;;;;;5035011;28;20474;-87
2021/11/17 13:38:17;;;;;;;0.30;0.20;;;6.50;99.90;;;;;;5034720;28;20432;-87
2021/11/17 13:40:46;;;;;;;0.30;0.20;;;6.50;99.90;;;;;;5036184;28;20442;-92
2021/11/17 13:43:13;;;;;;;0.30;0.20;;;6.50;99.90;;;;;;5035346;28;20435;-88
2021/11/17 13:45:41;;;;;;;0.30;0.30;;;6.40;99.90;;;;;;5035362;28;20435;-87
2021/11/17 13:48:09;;;;;;;0.30;0.20;;;6.40;99.90;;;;;;5035095;28;20466;-87
2021/11/17 13:50:39;;;;;;;0.30;0.30;;;6.40;99.90;;;;;;5034865;28;20446;-86
2021/11/17 13:53:09;;;;;;;0.30;0.30;;;6.50;99.90;;;;;;5034512;28;20514;-86
2021/11/17 13:55:38;;;;;;;0.33;0.27;;;6.40;99.90;;;;;;5034798;28;20443;-86
2021/11/17 13:58:06;;;;;;;0.30;0.30;;;6.40;99.90;;;;;;5034705;28;20427;-86
2021/11/17 14:00:34;;;;;;;0.30;0.20;;;6.30;99.90;;;;;;5034697;28;20435;-86
2021/11/17 14:03:01;;;;;;;0.30;0.20;;;6.20;99.90;;;;;;5034635;28;20435;-86
2021/11/17 14:05:30;;;;;;;1.73;0.90;;;6.10;99.90;;;;;;5034954;28;20977;-90
2021/11/17 14:07:57;;;;;;;0.30;0.20;;;6.10;99.90;;;;;;5034804;28;20474;-87
2021/11/17 14:10:24;;;;;;;0.30;0.20;;;6.20;99.90;;;;;;5034359;28;20915;-87
2021/11/17 14:12:52;;;;;;;4.93;0.50;;;6.20;99.90;;;;;;5034572;28;20442;-87
2021/11/17 14:15:19;;;;;;;0.30;0.20;;;6.20;99.90;;;;;;5034111;28;21001;-87
2021/11/17 14:17:47;;;;;;;0.30;0.20;;;6.20;99.90;;;;;;5034371;28;20416;-86
2021/11/17 14:20:15;;;;;;;0.30;0.30;;;6.20;99.90;;;;;;5034314;28;20485;-87
2021/11/17 14:22:43;;;;;;;0.30;0.20;;;6.20;99.90;;;;;;5034084;28;20416;-86
2021/11/17 14:25:16;;;;;;;0.30;0.20;;;6.20;99.90;;;;;;5034087;28;20471;-86
2021/11/17 14:27:45;;;;;;;0.37;0.37;;;6.30;99.90;;;;;;5034215;28;20498;-87
2021/11/17 14:30:28;;;;;;;0.30;0.30;;;6.40;99.90;;;;;;5034179;28;20426;-86
2021/11/17 14:32:56;;;;;;;0.30;0.20;;;6.40;99.90;;;;;;5033933;28;20423;-87
2021/11/17 14:35:27;;;;;;;0.53;0.30;;;6.40;99.90;;;;;;5033785;28;20950;-87
2021/11/17 14:37:56;;;;;;;0.30;0.20;;;6.40;99.90;;;;;;5034131;28;20435;-87
2021/11/17 14:40:25;;;;;;;0.30;0.20;;;6.40;99.90;;;;;;5034265;28;20854;-87
2021/11/17 14:42:52;;;;;;;0.30;0.30;;;6.50;99.90;;;;;;5034448;28;20857;-87
2021/11/17 14:45:23;;;;;;;0.30;0.20;;;6.40;99.90;;;;;;5034240;28;20859;-87
2021/11/17 14:47:50;;;;;;;0.30;0.20;;;6.40;99.90;;;;;;5033481;28;20466;-87
2021/11/17 14:50:17;;;;;;;0.30;0.20;;;6.40;99.90;;;;;;5038953;28;20438;-87
2021/11/17 14:52:44;;;;;;;0.30;0.30;;;6.30;99.90;;;;;;5034300;28;20439;-86
2021/11/17 14:55:16;;;;;;;0.30;0.20;;;6.30;99.90;;;;;;5033854;28;20475;-87
2021/11/17 14:57:43;;;;;;;0.30;0.20;;;6.30;99.90;;;;;;5033705;28;20444;-86
2021/11/17 15:00:13;;;;;;;0.40;0.30;;;6.30;99.90;;;;;;5033606;28;20439;-86
2021/11/17 15:02:40;;;;;;;0.30;0.20;;;6.20;99.90;;;;;;5033882;28;20435;-86
2021/11/17 15:05:09;;;;;;;0.30;0.30;;;6.20;99.90;;;;;;5033582;28;20524;-86
2021/11/17 15:07:35;;;;;;;0.30;0.30;;;6.20;99.90;;;;;;5033547;28;20442;-86
2021/11/17 15:10:05;;;;;;;0.30;0.30;;;6.20;99.90;;;;;;5033536;28;20434;-86
2021/11/17 15:12:36;;;;;;;0.30;0.20;;;6.10;99.90;;;;;;5033861;28;20431;-91
2021/11/17 15:15:08;;;;;;;0.30;0.30;;;6.10;99.90;;;;;;5034197;28;20466;-91
2021/11/17 15:17:35;;;;;;;0.40;0.40;;;6.10;99.90;;;;;;5033990;28;20445;-86
2021/11/17 15:20:02;;;;;;;0.30;0.20;;;6.10;99.90;;;;;;5035786;28;20930;-86
2021/11/17 15:22:28;;;;;;;0.30;0.20;;;6.10;99.90;;;;;;5037717;28;20423;-86
2021/11/17 15:24:55;;;;;;;0.30;0.20;;;6.10;99.90;;;;;;5037452;28;20466;-86
2021/11/17 15:27:33;;;;;;;1.47;0.50;;;6.10;99.90;;;;;;5037634;28;20834;-87
2021/11/17 15:30:01;;;;;;;1.07;0.50;;;6.00;99.90;;;;;;5037341;28;20430;-86
2021/11/17 15:32:30;;;;;;;0.67;0.67;;;6.00;99.90;;;;;;5037498;28;20419;-86
2021/11/17 15:34:57;;;;;;;0.30;0.30;;;6.00;99.90;;;;;;5037045;28;20966;-86
2021/11/17 15:37:23;;;;;;;0.40;0.30;;;6.00;99.90;;;;;;5037061;28;20424;-86
2021/11/17 15:39:50;;;;;;;0.30;0.20;;;6.00;99.90;;;;;;5037087;28;20427;-87
2021/11/17 15:42:17;;;;;;;0.30;0.23;;;6.00;99.90;;;;;;5037462;28;20922;-87
2021/11/17 15:44:46;;;;;;;0.30;0.30;;;6.00;99.90;;;;;;5037261;28;20474;-86
2021/11/17 15:47:13;;;;;;;0.30;0.20;;;6.00;99.90;;;;;;5037228;28;20484;-86
2021/11/17 15:49:42;;;;;;;0.30;0.20;;;5.90;99.90;;;;;;5036884;28;20814;-86
2021/11/17 15:52:10;;;;;;;0.30;0.30;;;5.90;99.90;;;;;;5037043;28;20438;-86
2021/11/17 15:54:37;;;;;;;0.33;0.27;;;5.90;99.90;;;;;;5036657;28;20814;-86
2021/11/17 15:57:04;;;;;;;0.30;0.20;;;5.90;99.90;;;;;;5036963;28;20447;-85
2021/11/17 15:59:32;;;;;;;0.30;0.20;;;5.90;99.90;;;;;;5036946;28;20422;-86
2021/11/17 16:02:00;;;;;;;0.30;0.20;;;5.90;99.90;;;;;;5037125;28;20435;-86
2021/11/17 16:04:29;;;;;;;0.30;0.30;;;5.80;99.90;;;;;;5036629;28;20447;-88
2021/11/17 16:07:00;;;;;;;0.40;0.30;;;5.90;99.90;;;;;;5037213;28;20842;-88